createdAt,value
2019-03-20T00:01:26.607Z,2.43
2019-03-20T00:03:55.724Z,2.43
2019-03-20T00:06:24.645Z,2.42
2019-03-20T00:08:53.486Z,2.38
2019-03-20T00:11:22.308Z,2.37
2019-03-20T00:13:51.086Z,2.42
2019-03-20T00:16:20.068Z,2.45
2019-03-20T00:18:51.883Z,2.46
2019-03-20T00:21:20.740Z,2.45
2019-03-20T00:23:49.613Z,2.46
2019-03-20T00:26:18.426Z,2.42
2019-03-20T00:28:47.272Z,2.41
2019-03-20T00:31:16.085Z,2.41
2019-03-20T00:33:44.972Z,2.41
2019-03-20T00:36:13.710Z,2.42
2019-03-20T00:38:42.558Z,2.43
2019-03-20T00:41:11.516Z,2.42
2019-03-20T00:43:40.411Z,2.43
2019-03-20T00:46:09.334Z,2.41
2019-03-20T00:48:38.169Z,2.41
2019-03-20T00:51:07.023Z,2.42
2019-03-20T00:53:35.982Z,2.38
2019-03-20T00:56:04.905Z,2.37
2019-03-20T00:58:33.800Z,2.38
2019-03-20T01:01:02.774Z,2.40
2019-03-20T01:03:31.594Z,2.41
2019-03-20T01:06:00.335Z,2.38
2019-03-20T01:08:29.159Z,2.40
2019-03-20T01:10:57.886Z,2.38
2019-03-20T01:13:26.674Z,2.38
2019-03-20T01:15:55.493Z,2.37
2019-03-20T01:18:24.312Z,2.37
2019-03-20T01:20:53.208Z,2.33
2019-03-20T01:23:22.021Z,2.33
2019-03-20T01:25:50.862Z,2.33
2019-03-20T01:28:19.715Z,2.32
2019-03-20T01:30:48.664Z,2.30
2019-03-20T01:33:17.675Z,2.27
2019-03-20T01:35:46.398Z,2.25
2019-03-20T01:38:15.286Z,2.20
2019-03-20T01:40:44.246Z,2.19
2019-03-20T01:43:13.164Z,2.13
2019-03-20T01:45:42.190Z,2.10
2019-03-20T01:48:11.012Z,2.08
2019-03-20T01:50:39.931Z,2.04
2019-03-20T01:53:08.814Z,2.00
2019-03-20T01:55:37.658Z,1.99
2019-03-20T01:58:06.605Z,1.96
2019-03-20T02:00:35.553Z,1.94
2019-03-20T02:03:04.660Z,1.91
2019-03-20T02:05:36.218Z,1.88
2019-03-20T02:08:04.105Z,1.85
2019-03-20T02:10:33.029Z,1.85
2019-03-20T02:13:01.951Z,1.81
2019-03-20T02:15:38.858Z,1.79
2019-03-20T02:18:01.435Z,1.77
2019-03-20T02:20:30.219Z,1.75
2019-03-20T02:22:59.140Z,1.73
2019-03-20T02:25:28.045Z,1.71
2019-03-20T02:27:56.902Z,1.69
2019-03-20T02:30:25.677Z,1.66
2019-03-20T02:32:54.563Z,1.67
2019-03-20T02:35:23.381Z,1.66
2019-03-20T02:37:52.256Z,1.65
2019-03-20T02:40:21.133Z,1.63
2019-03-20T02:42:50.123Z,1.66
2019-03-20T02:45:19.145Z,1.65
2019-03-20T02:47:49.616Z,1.63
2019-03-20T02:50:18.735Z,1.63
2019-03-20T02:52:47.727Z,1.61
2019-03-20T02:55:16.610Z,1.60
2019-03-20T02:57:45.579Z,1.59
2019-03-20T03:00:15.646Z,1.57
2019-03-20T03:02:44.628Z,1.55
2019-03-20T03:05:13.584Z,1.56
2019-03-20T03:07:42.514Z,1.54
2019-03-20T03:10:11.399Z,1.55
2019-03-20T03:12:40.391Z,1.55
2019-03-20T03:15:09.491Z,1.56
2019-03-20T03:17:38.554Z,1.56
2019-03-20T03:20:07.751Z,1.54
2019-03-20T03:22:36.856Z,1.56
2019-03-20T03:25:06.351Z,1.56
2019-03-20T03:27:35.344Z,1.56
2019-03-20T03:30:04.373Z,1.57
2019-03-20T03:32:33.336Z,1.57
2019-03-20T03:35:02.129Z,1.58
2019-03-20T03:37:30.936Z,1.58
2019-03-20T03:39:59.775Z,1.57
2019-03-20T03:42:28.809Z,1.58
2019-03-20T03:44:57.692Z,1.57
2019-03-20T03:47:26.651Z,1.57
2019-03-20T03:49:55.602Z,1.57
2019-03-20T03:52:24.528Z,1.55
2019-03-20T03:54:53.405Z,1.55
2019-03-20T03:57:22.340Z,1.55
2019-03-20T03:59:52.273Z,1.52
2019-03-20T04:02:21.499Z,1.53
2019-03-20T04:04:50.409Z,1.53
2019-03-20T04:07:19.551Z,1.51
2019-03-20T04:09:48.591Z,1.51
2019-03-20T04:12:17.506Z,1.50
2019-03-20T04:14:46.386Z,1.49
2019-03-20T04:17:23.204Z,1.47
2019-03-20T04:19:52.267Z,1.48
2019-03-20T04:22:21.285Z,1.48
2019-03-20T04:24:50.244Z,1.48
2019-03-20T04:27:19.105Z,1.49
2019-03-20T04:29:47.915Z,1.48
2019-03-20T04:32:16.755Z,1.49
2019-03-20T04:34:45.681Z,1.48
2019-03-20T04:37:14.558Z,1.48
2019-03-20T04:39:43.548Z,1.48
2019-03-20T04:42:12.585Z,1.49
2019-03-20T04:44:41.485Z,1.48
2019-03-20T04:47:10.355Z,1.51
2019-03-20T04:49:40.442Z,1.50
2019-03-20T04:52:09.522Z,1.50
2019-03-20T04:54:38.446Z,1.48
2019-03-20T04:57:07.288Z,1.48
2019-03-20T04:59:36.140Z,1.47
2019-03-20T05:02:06.047Z,1.44
2019-03-20T05:04:35.149Z,1.43
2019-03-20T05:07:04.229Z,1.39
2019-03-20T05:09:34.868Z,1.36
2019-03-20T05:12:04.005Z,1.33
2019-03-20T05:14:32.959Z,1.33
2019-03-20T05:17:01.962Z,1.29
2019-03-20T05:19:30.780Z,1.25
2019-03-20T05:21:59.663Z,1.23
2019-03-20T05:24:28.833Z,1.18
2019-03-20T05:26:57.754Z,1.15
2019-03-20T05:29:29.201Z,1.13
2019-03-20T05:31:59.420Z,1.09
2019-03-20T05:34:28.563Z,1.08
2019-03-20T05:37:09.963Z,1.11
2019-03-20T05:39:31.541Z,1.14
2019-03-20T05:42:02.976Z,1.18
2019-03-20T05:44:32.125Z,1.21
2019-03-20T05:47:03.604Z,1.27
2019-03-20T05:49:32.676Z,1.32
2019-03-20T05:52:02.874Z,1.37
2019-03-20T05:54:33.308Z,1.43
2019-03-20T05:57:02.692Z,1.49
2019-03-20T05:59:34.591Z,1.52
2019-03-20T06:02:03.793Z,1.58
2019-03-20T06:04:36.304Z,1.62
2019-03-20T06:07:05.712Z,1.67
2019-03-20T06:09:34.932Z,1.70
2019-03-20T06:12:08.633Z,1.75
2019-03-20T06:14:35.148Z,1.82
2019-03-20T06:17:04.281Z,1.92
2019-03-20T06:19:33.322Z,2.03
2019-03-20T06:22:02.382Z,2.17
2019-03-20T06:24:31.665Z,2.37
2019-03-20T06:27:00.987Z,2.64
2019-03-20T06:29:30.104Z,3.05
2019-03-20T06:31:59.127Z,3.83
2019-03-20T06:34:30.994Z,4.73
2019-03-20T06:37:02.547Z,5.65
2019-03-20T06:39:34.129Z,6.11
2019-03-20T06:42:03.288Z,6.89
2019-03-20T06:44:32.192Z,7.18
2019-03-20T06:47:01.204Z,7.46
2019-03-20T06:49:30.047Z,7.63
2019-03-20T06:51:59.180Z,7.81
2019-03-20T06:54:28.096Z,7.72
2019-03-20T06:56:57.284Z,7.68
2019-03-20T07:00:09.350Z,7.64
2019-03-20T07:02:39.072Z,7.88
2019-03-20T07:05:48.546Z,8.35
2019-03-20T07:08:19.266Z,9.30
2019-03-20T07:11:03.122Z,10.31
2019-03-20T07:13:32.048Z,10.76
2019-03-20T07:16:03.358Z,11.59
2019-03-20T07:18:32.424Z,12.14
2019-03-20T07:21:01.557Z,12.75
2019-03-20T07:23:30.555Z,12.75
2019-03-20T07:25:59.506Z,13.13
2019-03-20T07:28:29.778Z,12.93
2019-03-20T07:31:00.433Z,13.21
2019-03-20T07:33:29.390Z,13.05
2019-03-20T07:35:58.491Z,12.98
2019-03-20T07:38:27.487Z,12.49
2019-03-20T07:40:59.636Z,12.78
2019-03-20T07:43:31.745Z,12.45
2019-03-20T07:46:02.164Z,12.30
2019-03-20T07:48:31.052Z,12.20
2019-03-20T07:51:02.894Z,11.68
2019-03-20T07:53:31.742Z,11.17
2019-03-20T07:56:01.981Z,11.24
2019-03-20T07:58:30.976Z,11.34
2019-03-20T08:01:01.409Z,11.03
2019-03-20T08:03:32.419Z,10.83
2019-03-20T08:06:01.786Z,11.26
2019-03-20T08:08:31.281Z,11.04
2019-03-20T08:11:00.665Z,11.17
2019-03-20T08:13:29.901Z,11.41
2019-03-20T08:15:59.114Z,11.56
2019-03-20T08:18:34.446Z,11.72
2019-03-20T08:21:05.447Z,12.08
2019-03-20T08:23:38.474Z,12.35
2019-03-20T08:26:09.222Z,12.28
2019-03-20T08:28:41.270Z,12.35
2019-03-20T08:31:10.439Z,12.12
2019-03-20T08:33:39.762Z,13.04
2019-03-20T08:36:12.166Z,13.33
2019-03-20T08:38:44.176Z,13.02
2019-03-20T08:41:13.594Z,12.23
2019-03-20T08:43:42.999Z,12.91
2019-03-20T08:46:12.322Z,13.76
2019-03-20T08:48:43.999Z,13.35
2019-03-20T08:51:13.169Z,12.59
2019-03-20T08:53:42.224Z,12.25
2019-03-20T08:56:11.607Z,13.11
2019-03-20T08:58:40.741Z,12.73
2019-03-20T09:01:11.051Z,13.15
2019-03-20T09:03:44.620Z,13.52
2019-03-20T09:06:22.559Z,13.94
2019-03-20T09:08:51.806Z,14.02
2019-03-20T09:11:24.614Z,13.95
2019-03-20T09:13:54.061Z,13.81
2019-03-20T09:16:23.182Z,13.18
2019-03-20T09:18:52.365Z,12.77
2019-03-20T09:21:23.818Z,12.80
2019-03-20T09:23:52.874Z,13.39
2019-03-20T09:26:24.074Z,12.26
2019-03-20T09:28:53.253Z,11.57
2019-03-20T09:31:25.465Z,12.25
2019-03-20T09:33:57.782Z,12.46
2019-03-20T09:36:26.944Z,13.08
2019-03-20T09:38:59.378Z,13.65
2019-03-20T09:41:42.691Z,13.89
2019-03-20T09:44:11.695Z,12.72
2019-03-20T09:46:40.651Z,12.98
2019-03-20T09:49:15.208Z,12.66
2019-03-20T09:51:44.457Z,12.85
2019-03-20T09:54:15.099Z,13.25
2019-03-20T09:56:44.469Z,12.51
2019-03-20T09:59:14.737Z,12.11
2019-03-20T10:01:43.911Z,13.23
2019-03-20T10:04:15.077Z,13.46
2019-03-20T10:06:44.579Z,13.64
2019-03-20T10:09:16.804Z,14.06
2019-03-20T10:11:48.249Z,14.25
2019-03-20T10:14:17.430Z,12.80
2019-03-20T10:16:46.563Z,12.93
2019-03-20T10:19:15.855Z,13.55
2019-03-20T10:21:47.931Z,13.74
2019-03-20T10:24:17.513Z,13.63
2019-03-20T10:26:46.834Z,13.46
2019-03-20T10:29:21.533Z,13.56
2019-03-20T10:31:51.996Z,13.68
2019-03-20T10:34:21.036Z,13.59
2019-03-20T10:36:50.142Z,13.29
2019-03-20T10:39:19.277Z,13.17
2019-03-20T10:41:48.346Z,13.11
2019-03-20T10:44:17.484Z,13.00
2019-03-20T10:46:46.638Z,12.89
2019-03-20T10:49:15.960Z,12.96
2019-03-20T10:51:45.064Z,12.95
2019-03-20T10:54:25.235Z,12.68
2019-03-20T10:56:54.374Z,12.66
2019-03-20T10:59:23.552Z,12.52
2019-03-20T11:01:52.725Z,12.59
2019-03-20T11:04:21.913Z,12.63
2019-03-20T11:06:51.113Z,12.35
2019-03-20T11:09:21.548Z,12.71
2019-03-20T11:11:50.715Z,12.70
2019-03-20T11:14:19.911Z,12.88
2019-03-20T11:16:51.306Z,12.89
2019-03-20T11:19:20.384Z,12.79
2019-03-20T11:21:52.195Z,13.05
2019-03-20T11:24:21.368Z,12.36
2019-03-20T11:26:50.358Z,12.84
2019-03-20T11:29:21.734Z,12.03
2019-03-20T11:31:50.333Z,11.66
2019-03-20T11:34:19.261Z,11.57
2019-03-20T11:36:49.817Z,11.24
2019-03-20T11:39:29.184Z,11.26
2019-03-20T11:41:50.701Z,11.47
2019-03-20T11:44:19.854Z,11.53
2019-03-20T11:46:48.847Z,11.85
2019-03-20T11:49:17.831Z,12.17
2019-03-20T11:51:46.747Z,12.43
2019-03-20T11:54:15.672Z,12.58
2019-03-20T11:56:44.723Z,12.74
2019-03-20T11:59:13.638Z,12.74
2019-03-20T12:01:42.677Z,12.48
2019-03-20T12:04:11.666Z,11.72
2019-03-20T12:06:40.658Z,11.65
2019-03-20T12:09:10.596Z,11.98
2019-03-20T12:11:45.964Z,11.46
2019-03-20T12:14:10.127Z,11.55
2019-03-20T12:16:39.085Z,11.87
2019-03-20T12:19:07.981Z,12.31
2019-03-20T12:21:37.053Z,12.50
2019-03-20T12:24:06.188Z,12.05
2019-03-20T12:26:35.171Z,12.25
2019-03-20T12:29:04.172Z,12.42
2019-03-20T12:31:33.094Z,12.53
2019-03-20T12:34:02.333Z,12.42
2019-03-20T12:36:31.444Z,12.59
2019-03-20T12:39:00.518Z,12.64
2019-03-20T12:41:29.405Z,12.91
2019-03-20T12:43:59.783Z,13.02
2019-03-20T12:46:40.914Z,13.19
2019-03-20T12:48:59.877Z,12.90
2019-03-20T12:51:28.956Z,13.15
2019-03-20T12:53:58.010Z,13.07
2019-03-20T12:56:26.993Z,12.26
2019-03-20T12:58:58.823Z,12.61
2019-03-20T13:01:27.824Z,12.53
2019-03-20T13:03:56.691Z,12.79
2019-03-20T13:06:25.645Z,12.55
2019-03-20T13:08:54.719Z,12.44
2019-03-20T13:11:23.672Z,11.90
2019-03-20T13:13:52.564Z,11.90
2019-03-20T13:16:21.478Z,11.80
2019-03-20T13:18:50.480Z,11.77
2019-03-20T13:21:19.404Z,12.11
2019-03-20T13:23:48.354Z,12.41
2019-03-20T13:26:17.278Z,12.04
2019-03-20T13:28:46.308Z,12.18
2019-03-20T13:31:18.018Z,12.24
2019-03-20T13:33:49.011Z,11.94
2019-03-20T13:36:17.872Z,12.26
2019-03-20T13:38:46.912Z,12.35
2019-03-20T13:41:16.045Z,12.11
2019-03-20T13:43:45.156Z,12.08
2019-03-20T13:46:14.256Z,12.04
2019-03-20T13:48:43.357Z,12.15
2019-03-20T13:51:12.461Z,12.11
2019-03-20T13:53:41.636Z,12.32
2019-03-20T13:56:10.674Z,12.38
2019-03-20T13:58:42.048Z,12.34
2019-03-20T14:01:11.046Z,12.40
2019-03-20T14:03:40.011Z,12.51
2019-03-20T14:06:08.906Z,12.45
2019-03-20T14:08:37.885Z,11.57
2019-03-20T14:11:06.730Z,11.96
2019-03-20T14:13:35.605Z,12.09
2019-03-20T14:16:04.502Z,11.94
2019-03-20T14:18:33.714Z,11.83
2019-03-20T14:21:02.785Z,11.56
2019-03-20T14:23:31.791Z,11.82
2019-03-20T14:26:00.994Z,12.00
2019-03-20T14:28:31.342Z,12.01
2019-03-20T14:31:00.414Z,11.80
2019-03-20T14:33:29.376Z,11.79
2019-03-20T14:35:59.432Z,11.71
2019-03-20T14:38:29.516Z,11.95
2019-03-20T14:40:58.557Z,12.13
2019-03-20T14:43:27.518Z,12.04
2019-03-20T14:45:56.541Z,12.17
2019-03-20T14:48:27.114Z,12.34
2019-03-20T14:50:56.216Z,12.49
2019-03-20T14:53:25.103Z,12.49
2019-03-20T14:55:54.103Z,12.37
2019-03-20T14:58:23.227Z,12.46
2019-03-20T15:00:52.221Z,12.43
2019-03-20T15:03:21.342Z,11.94
2019-03-20T15:05:50.401Z,11.69
2019-03-20T15:08:19.301Z,11.95
2019-03-20T15:10:48.395Z,12.09
2019-03-20T15:13:18.350Z,12.00
2019-03-20T15:16:09.297Z,11.94
2019-03-20T15:18:38.261Z,11.80
2019-03-20T15:21:07.192Z,11.92
2019-03-20T15:23:36.108Z,11.96
2019-03-20T15:26:05.250Z,11.95
2019-03-20T15:28:34.355Z,11.78
2019-03-20T15:31:03.491Z,11.89
2019-03-20T15:33:32.525Z,11.90
2019-03-20T15:36:01.447Z,11.62
2019-03-20T15:38:30.372Z,11.37
2019-03-20T15:40:59.451Z,11.35
2019-03-20T15:43:29.128Z,11.45
2019-03-20T15:45:58.128Z,11.54
2019-03-20T15:48:27.121Z,11.29
2019-03-20T15:50:56.225Z,11.10
2019-03-20T15:53:26.136Z,11.05
2019-03-20T15:55:55.137Z,11.15
2019-03-20T15:58:24.126Z,11.18
2019-03-20T16:00:53.139Z,11.13
2019-03-20T16:03:22.956Z,11.00
2019-03-20T16:05:51.914Z,11.00
2019-03-20T16:08:21.099Z,11.00
2019-03-20T16:10:50.200Z,10.99
2019-03-20T16:13:19.243Z,10.83
2019-03-20T16:15:48.407Z,10.78
2019-03-20T16:18:17.400Z,10.73
2019-03-20T16:20:46.539Z,10.63
2019-03-20T16:23:15.652Z,10.53
2019-03-20T16:25:44.747Z,10.36
2019-03-20T16:28:13.903Z,10.31
2019-03-20T16:30:51.867Z,10.26
2019-03-20T16:33:18.188Z,10.18
2019-03-20T16:35:48.162Z,10.05
2019-03-20T16:38:17.024Z,9.99
2019-03-20T16:40:45.828Z,9.90
2019-03-20T16:43:14.781Z,9.82
2019-03-20T16:45:43.788Z,9.74
2019-03-20T16:48:12.956Z,9.67
2019-03-20T16:50:41.849Z,9.61
2019-03-20T16:53:10.802Z,9.54
2019-03-20T16:55:39.768Z,9.45
2019-03-20T16:58:08.681Z,9.37
2019-03-20T17:00:37.682Z,9.26
2019-03-20T17:03:08.732Z,9.21
2019-03-20T17:05:37.716Z,9.16
2019-03-20T17:08:06.682Z,9.06
2019-03-20T17:10:37.281Z,8.96
2019-03-20T17:13:06.317Z,8.90
2019-03-20T17:15:35.309Z,8.76
2019-03-20T17:18:04.410Z,8.65
2019-03-20T17:20:33.378Z,8.55
2019-03-20T17:23:02.492Z,8.48
2019-03-20T17:25:31.471Z,8.42
2019-03-20T17:28:00.451Z,8.34
2019-03-20T17:30:31.149Z,8.20
2019-03-20T17:33:00.134Z,8.13
2019-03-20T17:35:28.950Z,8.05
2019-03-20T17:37:58.234Z,7.92
2019-03-20T17:40:27.308Z,7.85
2019-03-20T17:42:56.253Z,7.76
2019-03-20T17:45:26.436Z,7.68
2019-03-20T17:47:55.386Z,7.69
2019-03-20T17:50:27.868Z,7.58
2019-03-20T17:52:58.010Z,7.50
2019-03-20T17:55:27.385Z,7.43
2019-03-20T17:57:57.419Z,7.30
2019-03-20T18:00:33.307Z,7.26
2019-03-20T18:03:02.250Z,7.22
2019-03-20T18:05:31.169Z,7.20
2019-03-20T18:08:00.235Z,7.12
2019-03-20T18:10:29.219Z,6.98
2019-03-20T18:12:58.155Z,6.88
2019-03-20T18:15:27.082Z,6.79
2019-03-20T18:17:56.261Z,6.79
2019-03-20T18:20:25.270Z,6.86
2019-03-20T18:22:54.144Z,6.89
2019-03-20T18:25:23.162Z,6.87
2019-03-20T18:27:52.325Z,6.83
2019-03-20T18:30:22.161Z,6.83
2019-03-20T18:32:57.005Z,6.79
2019-03-20T18:35:26.079Z,6.66
2019-03-20T18:37:55.082Z,6.62
2019-03-20T18:40:24.100Z,6.55
2019-03-20T18:42:52.992Z,6.49
2019-03-20T18:45:22.189Z,6.43
2019-03-20T18:47:52.189Z,6.35
2019-03-20T18:50:21.057Z,6.31
2019-03-20T18:52:50.056Z,6.27
2019-03-20T18:55:19.046Z,6.16
2019-03-20T18:57:48.145Z,6.05
2019-03-20T19:00:21.906Z,5.95
2019-03-20T19:02:51.113Z,5.90
2019-03-20T19:05:26.513Z,5.84
2019-03-20T19:07:55.428Z,5.78
2019-03-20T19:10:24.343Z,5.73
2019-03-20T19:12:55.188Z,5.64
2019-03-20T19:15:24.058Z,5.57
2019-03-20T19:17:53.884Z,5.54
2019-03-20T19:20:23.753Z,5.45
2019-03-20T19:22:52.745Z,5.42
2019-03-20T19:25:22.730Z,5.36
2019-03-20T19:27:51.577Z,5.28
2019-03-20T19:30:20.577Z,5.23
2019-03-20T19:32:49.466Z,5.13
2019-03-20T19:35:18.378Z,5.10
2019-03-20T19:37:47.266Z,5.01
2019-03-20T19:40:16.284Z,4.95
2019-03-20T19:42:45.187Z,4.92
2019-03-20T19:45:14.249Z,4.85
2019-03-20T19:47:43.132Z,4.77
2019-03-20T19:50:13.819Z,4.78
2019-03-20T19:52:42.774Z,4.71
2019-03-20T19:55:11.651Z,4.72
2019-03-20T19:57:41.687Z,4.70
2019-03-20T20:00:13.214Z,4.61
2019-03-20T20:02:42.111Z,4.58
2019-03-20T20:05:15.678Z,4.56
2019-03-20T20:07:43.078Z,4.53
2019-03-20T20:10:12.378Z,4.47
2019-03-20T20:12:41.251Z,4.47
2019-03-20T20:15:13.106Z,4.42
2019-03-20T20:17:42.059Z,4.39
2019-03-20T20:20:13.015Z,4.34
2019-03-20T20:22:41.845Z,4.23
2019-03-20T20:25:10.836Z,4.26
2019-03-20T20:27:39.851Z,4.15
2019-03-20T20:30:11.493Z,4.09
2019-03-20T20:32:41.740Z,4.03
2019-03-20T20:35:10.531Z,4.03
2019-03-20T20:37:39.292Z,3.94
2019-03-20T20:40:09.320Z,3.95
2019-03-20T20:42:43.030Z,3.94
2019-03-20T20:45:08.881Z,3.89
2019-03-20T20:47:37.775Z,3.80
2019-03-20T20:50:06.906Z,3.67
2019-03-20T20:52:35.717Z,3.65
2019-03-20T20:55:05.334Z,3.56
2019-03-20T20:57:34.256Z,3.50
2019-03-20T21:00:05.339Z,3.50
2019-03-20T21:02:34.373Z,3.47
2019-03-20T21:05:04.756Z,3.39
2019-03-20T21:07:33.756Z,3.38
2019-03-20T21:10:02.650Z,3.32
2019-03-20T21:12:31.877Z,3.25
2019-03-20T21:15:00.663Z,3.25
2019-03-20T21:17:42.474Z,3.28
2019-03-20T21:20:11.803Z,3.28
2019-03-20T21:23:25.475Z,3.24
2019-03-20T21:25:57.372Z,3.18
2019-03-20T21:29:16.694Z,3.12
2019-03-20T21:31:53.417Z,3.08
2019-03-20T21:34:57.167Z,3.01
2019-03-20T21:38:03.219Z,2.94
2019-03-20T21:40:39.318Z,2.88
2019-03-20T21:43:58.466Z,2.87
2019-03-20T21:46:57.231Z,2.89
2019-03-20T21:49:27.519Z,2.81
2019-03-20T21:51:57.012Z,2.73
2019-03-20T21:55:10.199Z,2.67
2019-03-20T21:58:02.523Z,2.63
2019-03-20T22:01:07.479Z,2.64
2019-03-20T22:03:36.870Z,2.64
2019-03-20T22:06:43.794Z,2.61
2019-03-20T22:09:19.537Z,2.61
2019-03-20T22:12:14.369Z,2.59
2019-03-20T22:14:45.730Z,2.56
2019-03-20T22:17:52.966Z,2.53
2019-03-20T22:20:53.568Z,2.51
2019-03-20T22:24:09.496Z,2.41
2019-03-20T22:27:07.419Z,2.35
2019-03-20T22:29:37.763Z,2.29
2019-03-20T22:32:33.490Z,2.23
2019-03-20T22:35:29.323Z,2.19
2019-03-20T22:37:59.536Z,2.15
2019-03-20T22:41:12.168Z,2.11
2019-03-20T22:43:57.669Z,2.12
2019-03-20T22:47:10.669Z,2.14
2019-03-20T22:50:26.200Z,2.04
2019-03-20T22:53:37.898Z,1.97
2019-03-20T22:56:28.941Z,1.98
2019-03-20T22:58:58.378Z,1.95
2019-03-20T23:01:54.619Z,1.98
2019-03-20T23:04:28.373Z,1.98
2019-03-20T23:06:57.646Z,1.91
2019-03-20T23:09:26.895Z,1.93
2019-03-20T23:11:56.777Z,1.94
2019-03-20T23:14:26.075Z,1.89
2019-03-20T23:16:56.552Z,1.87
2019-03-20T23:19:25.944Z,1.83
2019-03-20T23:21:55.352Z,1.80
2019-03-20T23:24:24.804Z,1.74
2019-03-20T23:26:54.633Z,1.70
2019-03-20T23:29:24.158Z,1.68
2019-03-20T23:31:53.429Z,1.63
2019-03-20T23:34:22.864Z,1.60
2019-03-20T23:36:52.324Z,1.59
2019-03-20T23:39:21.657Z,1.60
2019-03-20T23:41:50.909Z,1.63
2019-03-20T23:44:20.213Z,1.66
2019-03-20T23:46:49.452Z,1.69
2019-03-20T23:49:21.154Z,1.70
2019-03-20T23:51:50.528Z,1.70
2019-03-20T23:54:23.293Z,1.67
2019-03-20T23:56:52.684Z,1.66
2019-03-20T23:59:22.120Z,1.59
